Airfield :
LOGIN :

Register | Disclaimer

   EN    FR    IT 

 










Legend :    VFR   Marginal VFR   IFR   Intensive IFR   Very Intensive IFR
Visi :
Ceiling :
>= 8 km
>= 3000ft
5 to 8 km
1000 to 3000 ft
1500m to 5 km
500 to 1000 ft
800 to 1500m
200 to 500 ft
< 800m
< 200 ft
Symbols :   Thunderstorms  Fog  Heavy snow  Heavy precipitations  Wind > 20 kt
SIGMETs :     Misc.  Thunderstorms  Icing  Turbulence  Mountain Waves  Volcanic Ashes







- Airport Elevation : 49 ft
- IATA code : SEN
- Download approach charts


EGMC - Southend

CURRENT METAR :
  • 210950Z 26006KT 210V310 9999 BKN013 11/08 Q1034

EXPIRED METARs :
  • 210920Z 24006KT 9999 BKN013 11/07 Q1034
  • 210850Z 25007KT 9999 BKN011 10/07 Q1033
  • 210820Z 22006KT 9999 BKN011 10/07 Q1033
  • 210750Z 24006KT 9999 BKN011 09/06 Q1033
  • 210720Z 23007KT 9000 OVC011 09/06 Q1033

TAF TAF EGMC
Valid from the 21 at 09:00 until the 21 at 18:00 UTC


210756Z 2109/2118 23005KT 9999 BKN013
BECMG 2109/2112 BKN020
No reported NOTAMs for that airfield.



MET'MAP, your aeronautical weather chart ! - Copyright ORBIFLY December 2007 - Disclaimer

ORBIFLY MET'MAP TEAM :

Programming & Development : Alexandra Zaïnal
Concept & Development : Baudouin d'Aumeries
Co-Development & Prog : Marc-Olivier Méhu
Technical & hardware support : Manuel Goepfert

Contact : metmap@orbifly.com




SOURCES & CREDITS :

   NOAA